Terminal Aerodrome Forecast
Issued by NWS

Home | Current Version | Previous Version | Graphics & Text | Print | Product List | Glossary On
Versions: 1 2 3 4 5 6 7 8 9 10 11 12 13 14 15 16 17 18 19 20 21 22
000
FTUS43 KABR 172000 AAA
TAFMBG
TAF AMD
KMBG 172051Z 1721/1818 35011KT P6SM OVC029
      TEMPO 1721/1722 SCT029
     FM172200 36008KT P6SM SCT029
     FM181200 13006KT P6SM SKC=

USA.gov is the U.S. government's official web portal to all federal, state and local government web resources and services.